Airfield :
LOGIN :

Register | Disclaimer

   EN    FR    IT 

 










Legend :    VFR   Marginal VFR   IFR   Intensive IFR   Very Intensive IFR
Visi :
Ceiling :
>= 8 km
>= 3000ft
5 to 8 km
1000 to 3000 ft
1500m to 5 km
500 to 1000 ft
800 to 1500m
200 to 500 ft
< 800m
< 200 ft
Symbols :   Thunderstorms  Fog  Heavy snow  Heavy precipitations  Wind > 20 kt
SIGMETs :     Misc.  Thunderstorms  Icing  Turbulence  Mountain Waves  Volcanic Ashes






- Airport Elevation : 2595 ft
- IATA code : SLM


LESA - Salamanca Matacan

CURRENT METAR :
  • 271330Z 33005KT 250V020 9999 SCT022 21/12 Q1025

EXPIRED METARs :
  • 271300Z 34004KT 270V030 9999 SCT022 21/12 Q1025
  • 271230Z VRB02KT 9999 FEW022 20/12 Q1025
  • 271200Z 35003KT 290V080 9999 FEW022 19/13 Q1025
  • 271130Z VRB02KT 9999 SCT021 19/13 Q1025
  • 271100Z VRB02KT 9999 SCT016 BKN020 18/12 Q1025

TAF TAF LESA
Valid from the 27 at 09:00 until the 28 at 09:00 UTC


270800Z 2709/2809 VRB05KT CAVOK TX23/2715Z TN08/2806Z
PROB40
TEMPO 2709/2710 4500 BR BKN012
PROB40
TEMPO 2717/2720 36010KT
TEMPO 2722/2803 3000 BR BKN007
PROB40
TEMPO 2803/2809 2500 BR BCFG BKN002



MET'MAP, your aeronautical weather chart ! - Copyright ORBIFLY December 2007 - Disclaimer

ORBIFLY MET'MAP TEAM :

Programming & Development : Alexandra Zaïnal
Concept & original design : Baudouin d'Aumeries
Assistance for programming : Marc-Olivier Méhu
Technical & hardware support : Manuel Goepfert

Contact : metmap@orbifly.com




SOURCES & CREDITS :

   NOAA